createdAt,value
2022-11-20T00:00:40.082Z,11.17
2022-11-20T00:03:06.867Z,11.53
2022-11-20T00:05:33.806Z,11.03
2022-11-20T00:08:00.658Z,11.00
2022-11-20T00:10:27.868Z,10.43
2022-11-20T00:12:54.774Z,11.47
2022-11-20T00:15:21.336Z,11.20
2022-11-20T00:17:47.849Z,10.60
2022-11-20T00:20:15.014Z,10.50
2022-11-20T00:22:41.868Z,10.80
2022-11-20T00:25:08.902Z,13.37
2022-11-20T00:27:36.377Z,12.80
2022-11-20T00:30:03.372Z,11.40
2022-11-20T00:32:30.775Z,11.30
2022-11-20T00:34:57.717Z,11.00
2022-11-20T00:37:24.665Z,10.93
2022-11-20T00:39:51.573Z,10.27
2022-11-20T00:42:18.444Z,10.57
2022-11-20T00:44:45.784Z,10.03
2022-11-20T00:47:12.321Z,11.67
2022-11-20T00:49:39.229Z,10.63
2022-11-20T00:52:06.105Z,9.87
2022-11-20T00:54:33.300Z,9.83
2022-11-20T00:57:00.600Z,9.80
2022-11-20T00:59:27.209Z,10.63
2022-11-20T01:01:54.867Z,10.53
2022-11-20T01:04:21.776Z,10.53
2022-11-20T01:06:48.644Z,10.17
2022-11-20T01:09:15.664Z,11.27
2022-11-20T01:11:43.595Z,10.53
2022-11-20T01:14:12.850Z,10.20
2022-11-20T01:16:41.290Z,11.97
2022-11-20T01:19:15.972Z,11.03
2022-11-20T01:21:45.658Z,11.07
2022-11-20T01:24:14.732Z,10.30
2022-11-20T01:26:43.226Z,11.40
2022-11-20T01:29:14.069Z,10.47
2022-11-20T01:31:41.179Z,10.53
2022-11-20T01:34:11.101Z,11.37
2022-11-20T01:36:38.719Z,11.37
2022-11-20T01:39:07.881Z,11.83
2022-11-20T01:41:53.491Z,11.83
2022-11-20T01:44:22.861Z,11.63
2022-11-20T01:46:57.545Z,14.00
2022-11-20T01:49:28.784Z,13.70
2022-11-20T01:52:00.436Z,11.50
2022-11-20T01:54:36.745Z,10.90
2022-11-20T01:57:07.085Z,11.10
2022-11-20T01:59:34.642Z,17.10
2022-11-20T02:02:01.490Z,11.70
2022-11-20T02:04:28.707Z,11.07
2022-11-20T02:07:00.375Z,11.10
2022-11-20T02:09:28.223Z,11.07
2022-11-20T02:11:55.570Z,11.23
2022-11-20T02:14:23.155Z,10.67
2022-11-20T02:16:50.987Z,9.73
2022-11-20T02:19:23.449Z,10.33
2022-11-20T02:22:00.807Z,11.33
2022-11-20T02:24:28.019Z,10.07
2022-11-20T02:26:58.498Z,10.63
2022-11-20T02:29:28.387Z,11.07
2022-11-20T02:31:56.674Z,11.33
2022-11-20T02:34:23.528Z,11.77
2022-11-20T02:36:51.820Z,10.60
2022-11-20T02:39:20.229Z,10.60
2022-11-20T02:41:47.776Z,10.90
2022-11-20T02:44:14.700Z,11.87
2022-11-20T02:46:41.295Z,10.97
2022-11-20T02:49:08.163Z,11.03
2022-11-20T02:51:35.073Z,11.03
2022-11-20T02:54:01.697Z,11.57
2022-11-20T02:56:28.563Z,11.50
2022-11-20T02:58:55.977Z,10.67
2022-11-20T03:01:23.155Z,11.33
2022-11-20T03:03:49.810Z,10.73
2022-11-20T03:06:16.652Z,11.53
2022-11-20T03:08:43.559Z,10.60
2022-11-20T03:11:10.869Z,11.80
2022-11-20T03:13:37.780Z,10.93
2022-11-20T03:16:13.383Z,11.83
2022-11-20T03:18:40.541Z,10.43
2022-11-20T03:21:07.998Z,11.17
2022-11-20T03:23:35.838Z,11.23
2022-11-20T03:26:13.420Z,11.30
2022-11-20T03:28:40.317Z,11.13
2022-11-20T03:31:09.314Z,11.33
2022-11-20T03:33:37.473Z,11.57
2022-11-20T03:36:05.532Z,11.13
2022-11-20T03:38:32.401Z,10.53
2022-11-20T03:41:01.269Z,11.70
2022-11-20T03:43:28.135Z,10.93
2022-11-20T03:45:55.026Z,10.37
2022-11-20T03:48:21.894Z,12.13
2022-11-20T03:50:49.153Z,10.30
2022-11-20T03:53:16.069Z,10.93
2022-11-20T03:55:43.136Z,12.17
2022-11-20T03:58:10.062Z,11.47
2022-11-20T04:00:36.962Z,10.50
2022-11-20T04:03:04.105Z,11.40
2022-11-20T04:05:30.980Z,10.70
2022-11-20T04:07:58.540Z,11.37
2022-11-20T04:10:25.433Z,11.27
2022-11-20T04:12:52.287Z,11.10
2022-11-20T04:15:19.243Z,11.63
2022-11-20T04:17:45.817Z,10.90
2022-11-20T04:20:12.529Z,11.07
2022-11-20T04:22:39.349Z,11.13
2022-11-20T04:25:07.401Z,11.77
2022-11-20T04:27:34.262Z,10.93
2022-11-20T04:30:01.414Z,11.80
2022-11-20T04:32:28.328Z,11.93
2022-11-20T04:34:55.187Z,10.90
2022-11-20T04:37:22.103Z,10.83
2022-11-20T04:39:48.947Z,12.20
2022-11-20T04:42:31.089Z,11.60
2022-11-20T04:44:58.371Z,11.07
2022-11-20T04:47:24.970Z,11.97
2022-11-20T04:49:51.930Z,12.23
2022-11-20T04:52:18.900Z,11.27
2022-11-20T04:54:45.436Z,10.93
2022-11-20T04:57:14.925Z,12.23
2022-11-20T04:59:42.184Z,11.93
2022-11-20T05:02:09.173Z,12.40
2022-11-20T05:04:35.734Z,12.10
2022-11-20T05:07:02.415Z,11.73
2022-11-20T05:09:29.423Z,11.77
2022-11-20T05:11:55.984Z,11.93
2022-11-20T05:14:22.547Z,12.13
2022-11-20T05:16:49.935Z,12.27
2022-11-20T05:19:16.488Z,12.87
2022-11-20T05:21:43.331Z,11.43
2022-11-20T05:24:10.161Z,11.63
2022-11-20T05:26:37.049Z,12.90
2022-11-20T05:29:04.030Z,12.73
2022-11-20T05:31:30.770Z,13.00
2022-11-20T05:33:58.200Z,12.57
2022-11-20T05:36:25.077Z,11.87
2022-11-20T05:38:55.437Z,12.20
2022-11-20T05:41:22.810Z,12.07
2022-11-20T05:43:50.277Z,11.37
2022-11-20T05:46:22.258Z,11.80
2022-11-20T05:48:51.948Z,12.70
2022-11-20T05:51:20.558Z,11.07
2022-11-20T05:53:48.755Z,12.73
2022-11-20T05:56:18.253Z,11.77
2022-11-20T05:58:46.172Z,11.80
2022-11-20T06:01:15.389Z,13.23
2022-11-20T06:03:43.946Z,12.17
2022-11-20T06:06:10.870Z,11.77
2022-11-20T06:08:38.276Z,12.87
2022-11-20T06:11:05.755Z,11.87
2022-11-20T06:13:32.728Z,12.47
2022-11-20T06:15:59.639Z,10.90
2022-11-20T06:18:28.671Z,12.47
2022-11-20T06:21:01.768Z,12.53
2022-11-20T06:23:30.195Z,12.20
2022-11-20T06:25:57.521Z,12.97
2022-11-20T06:28:24.095Z,13.97
2022-11-20T06:30:50.965Z,13.33
2022-11-20T06:33:17.720Z,12.53
2022-11-20T06:35:44.635Z,12.77
2022-11-20T06:38:11.522Z,12.60
2022-11-20T06:40:41.170Z,12.50
2022-11-20T06:43:08.532Z,12.13
2022-11-20T06:45:35.449Z,12.70
2022-11-20T06:48:02.388Z,12.77
2022-11-20T06:50:29.239Z,12.80
2022-11-20T06:52:56.286Z,11.67
2022-11-20T06:55:23.241Z,12.33
2022-11-20T06:57:54.745Z,12.53
2022-11-20T07:00:23.279Z,12.13
2022-11-20T07:02:50.148Z,12.67
2022-11-20T07:05:16.953Z,12.73
2022-11-20T07:07:43.723Z,12.50
2022-11-20T07:10:11.097Z,11.50
2022-11-20T07:12:37.663Z,12.30
2022-11-20T07:15:05.178Z,12.13
2022-11-20T07:17:32.414Z,11.80
2022-11-20T07:19:59.021Z,11.20
2022-11-20T07:22:25.975Z,11.83
2022-11-20T07:24:52.827Z,13.13
2022-11-20T07:27:19.481Z,11.97
2022-11-20T07:29:46.383Z,12.83
2022-11-20T07:32:13.270Z,12.17
2022-11-20T07:34:40.836Z,12.27
2022-11-20T07:37:10.303Z,12.57
2022-11-20T07:39:37.558Z,11.63
2022-11-20T07:42:04.209Z,11.53
2022-11-20T07:44:30.789Z,12.47
2022-11-20T07:46:57.717Z,11.97
2022-11-20T07:49:24.719Z,13.03
2022-11-20T07:51:53.924Z,14.83
2022-11-20T07:54:21.142Z,14.47
2022-11-20T07:56:48.049Z,13.20
2022-11-20T07:59:15.807Z,11.13
2022-11-20T08:01:42.816Z,12.30
2022-11-20T08:04:09.896Z,12.53
2022-11-20T08:06:37.093Z,11.90
2022-11-20T08:09:04.512Z,12.90
2022-11-20T08:11:49.267Z,13.47
2022-11-20T08:14:16.100Z,13.07
2022-11-20T08:16:44.463Z,12.27
2022-11-20T08:19:11.448Z,12.97
2022-11-20T08:21:38.582Z,12.67
2022-11-20T08:24:07.279Z,12.23
2022-11-20T08:26:34.212Z,12.60
2022-11-20T08:29:01.215Z,12.33
2022-11-20T08:31:28.647Z,16.50
2022-11-20T08:33:55.485Z,13.07
2022-11-20T08:36:23.365Z,12.40
2022-11-20T08:38:50.491Z,12.37
2022-11-20T08:41:27.408Z,12.37
2022-11-20T08:43:56.357Z,11.80
2022-11-20T08:46:23.985Z,13.87
2022-11-20T08:48:50.944Z,12.97
2022-11-20T08:51:18.280Z,12.73
2022-11-20T08:53:45.156Z,13.03
2022-11-20T08:56:11.818Z,11.97
2022-11-20T08:59:09.965Z,12.07
2022-11-20T09:01:26.894Z,10.00
2022-11-20T09:03:53.930Z,12.53
2022-11-20T09:06:20.574Z,13.10
2022-11-20T09:08:47.479Z,12.50
2022-11-20T09:11:14.438Z,13.13
2022-11-20T09:13:41.817Z,14.47
2022-11-20T09:16:09.687Z,12.13
2022-11-20T09:18:37.981Z,14.83
2022-11-20T09:21:07.029Z,15.77
2022-11-20T09:23:35.919Z,16.87
2022-11-20T09:26:03.732Z,12.47
2022-11-20T09:28:31.181Z,14.70
2022-11-20T09:30:58.584Z,15.67
2022-11-20T09:33:25.448Z,12.80
2022-11-20T09:35:52.320Z,13.10
2022-11-20T09:38:19.278Z,11.53
2022-11-20T09:40:51.098Z,12.73
2022-11-20T09:43:23.580Z,11.40
2022-11-20T09:46:03.826Z,12.93
2022-11-20T09:48:41.573Z,11.40
2022-11-20T09:51:22.379Z,14.03
2022-11-20T09:54:01.105Z,10.90
2022-11-20T09:56:29.692Z,11.23
2022-11-20T09:59:00.474Z,12.70
2022-11-20T10:01:33.067Z,12.60
2022-11-20T10:04:03.464Z,12.17
2022-11-20T10:06:32.015Z,11.83
2022-11-20T10:09:07.566Z,12.33
2022-11-20T10:11:47.178Z,11.50
2022-11-20T10:14:24.845Z,12.07
2022-11-20T10:17:02.580Z,18.07
2022-11-20T10:19:47.965Z,12.97
2022-11-20T10:22:25.166Z,11.10
2022-11-20T10:24:57.230Z,11.43
2022-11-20T10:27:48.551Z,13.03
2022-11-20T10:30:17.539Z,12.53
2022-11-20T10:32:49.483Z,12.60
2022-11-20T10:35:21.773Z,11.40
2022-11-20T10:37:57.580Z,14.50
2022-11-20T10:40:32.067Z,13.77
2022-11-20T10:43:02.197Z,11.13
2022-11-20T10:45:38.936Z,12.40
2022-11-20T10:48:17.187Z,12.27
2022-11-20T10:50:55.545Z,11.60
2022-11-20T10:53:41.528Z,11.23
2022-11-20T10:56:15.351Z,10.83
2022-11-20T10:58:50.304Z,15.17
2022-11-20T11:01:18.914Z,13.10
2022-11-20T11:03:47.095Z,11.77
2022-11-20T11:06:20.861Z,12.90
2022-11-20T11:08:50.293Z,13.00
2022-11-20T11:11:22.710Z,12.10
2022-11-20T11:13:49.715Z,11.80
2022-11-20T11:16:24.688Z,11.80
2022-11-20T11:18:52.302Z,10.40
2022-11-20T11:21:25.145Z,20.87
2022-11-20T11:24:19.747Z,11.57
2022-11-20T11:26:55.653Z,12.07
2022-11-20T11:29:22.885Z,10.50
2022-11-20T11:31:49.669Z,13.20
2022-11-20T11:34:18.231Z,11.03
2022-11-20T11:36:58.795Z,11.70
2022-11-20T11:39:27.955Z,14.83
2022-11-20T11:41:55.317Z,12.00
2022-11-20T11:44:43.110Z,10.57
2022-11-20T11:47:18.674Z,12.80
2022-11-20T11:49:46.046Z,11.73
2022-11-20T11:52:16.654Z,11.77
2022-11-20T11:54:48.084Z,12.67
2022-11-20T11:57:23.880Z,9.90
2022-11-20T12:00:01.415Z,10.60
2022-11-20T12:02:36.514Z,12.03
2022-11-20T12:05:13.929Z,12.17
2022-11-20T12:07:47.594Z,10.30
2022-11-20T12:10:21.062Z,11.40
2022-11-20T12:12:53.283Z,15.17
2022-11-20T12:15:29.114Z,14.60
2022-11-20T12:17:56.163Z,14.43
2022-11-20T12:20:26.860Z,13.97
2022-11-20T12:23:02.668Z,15.60
2022-11-20T12:25:37.467Z,13.27
2022-11-20T12:28:24.496Z,12.33
2022-11-20T12:31:05.987Z,11.13
2022-11-20T12:33:49.588Z,13.10
2022-11-20T12:36:28.593Z,11.00
2022-11-20T12:39:06.043Z,10.40
2022-11-20T12:42:13.923Z,9.87
2022-11-20T12:45:11.319Z,9.23
2022-11-20T12:47:52.597Z,9.90
2022-11-20T12:50:30.597Z,9.47
2022-11-20T12:53:05.239Z,9.07
2022-11-20T12:55:40.108Z,8.97
2022-11-20T12:58:18.314Z,9.47
2022-11-20T13:00:57.025Z,9.23
2022-11-20T13:03:38.566Z,9.13
2022-11-20T13:06:14.504Z,8.07
2022-11-20T13:08:44.308Z,8.07
2022-11-20T13:11:19.558Z,8.20
2022-11-20T13:14:08.578Z,7.60
2022-11-20T13:16:41.047Z,7.30
2022-11-20T13:19:12.392Z,7.10
2022-11-20T13:21:41.178Z,7.23
2022-11-20T13:24:23.537Z,7.23
2022-11-20T13:27:05.479Z,6.13
2022-11-20T13:29:33.067Z,6.73
2022-11-20T13:32:08.173Z,7.37
2022-11-20T13:34:36.719Z,6.77
2022-11-20T13:37:04.223Z,6.93
2022-11-20T13:39:34.138Z,7.00
2022-11-20T13:42:02.169Z,6.73
2022-11-20T13:44:34.881Z,7.20
2022-11-20T13:47:01.884Z,7.73
2022-11-20T13:49:32.871Z,7.70
2022-11-20T13:52:22.640Z,6.73
2022-11-20T13:55:03.093Z,6.60
2022-11-20T13:57:46.738Z,6.70
2022-11-20T14:00:15.862Z,6.43
2022-11-20T14:02:43.544Z,6.30
2022-11-20T14:05:20.283Z,6.43
2022-11-20T14:07:48.245Z,5.43
2022-11-20T14:10:24.859Z,5.87
2022-11-20T14:12:55.657Z,6.10
2022-11-20T14:15:29.594Z,6.40
2022-11-20T14:17:56.608Z,6.47
2022-11-20T14:20:26.627Z,6.70
2022-11-20T14:22:54.308Z,7.30
2022-11-20T14:25:23.604Z,6.17
2022-11-20T14:27:54.185Z,7.57
2022-11-20T14:30:23.317Z,7.63
2022-11-20T14:32:51.516Z,6.60
2022-11-20T14:35:24.889Z,7.77
2022-11-20T14:37:52.545Z,7.70
2022-11-20T14:40:35.361Z,6.77
2022-11-20T14:43:03.177Z,7.00
2022-11-20T14:45:31.097Z,7.17
2022-11-20T14:48:04.958Z,6.87
2022-11-20T14:50:37.496Z,7.00
2022-11-20T14:53:09.632Z,6.67
2022-11-20T14:55:40.417Z,7.13
2022-11-20T14:58:25.095Z,7.60
2022-11-20T15:00:59.639Z,29.03
2022-11-20T15:03:40.912Z,8.07
2022-11-20T15:09:13.023Z,7.43
2022-11-20T15:11:57.691Z,7.47
2022-11-20T15:14:41.630Z,9.30
2022-11-20T15:17:14.264Z,6.63
2022-11-20T15:19:41.444Z,7.23
2022-11-20T15:22:16.527Z,7.53
2022-11-20T15:24:43.903Z,8.00
2022-11-20T15:27:12.477Z,7.37
2022-11-20T15:29:42.596Z,8.00
2022-11-20T15:32:32.834Z,7.60
2022-11-20T15:35:00.941Z,8.30
2022-11-20T15:37:30.558Z,7.83
2022-11-20T15:40:00.456Z,8.33
2022-11-20T15:42:37.542Z,8.20
2022-11-20T15:45:20.904Z,7.87
2022-11-20T15:48:05.360Z,7.67
2022-11-20T15:50:38.142Z,7.73
2022-11-20T15:53:11.410Z,7.20
2022-11-20T15:55:43.424Z,7.90
2022-11-20T15:58:15.190Z,7.83
2022-11-20T16:00:48.727Z,7.93
2022-11-20T16:03:26.842Z,8.03
2022-11-20T16:05:57.400Z,7.93
2022-11-20T16:08:47.854Z,8.97
2022-11-20T16:11:17.229Z,8.40
2022-11-20T16:14:08.854Z,8.47
2022-11-20T16:16:43.054Z,9.57
2022-11-20T16:19:17.524Z,10.80
2022-11-20T16:21:47.345Z,9.60
2022-11-20T16:24:17.800Z,8.67
2022-11-20T16:26:47.662Z,8.43
2022-11-20T16:29:19.602Z,8.80
2022-11-20T16:31:50.879Z,8.63
2022-11-20T16:34:23.450Z,9.03
2022-11-20T16:36:55.931Z,8.10
2022-11-20T16:39:24.971Z,8.37
2022-11-20T16:41:57.365Z,8.37
2022-11-20T16:44:30.976Z,8.00
2022-11-20T16:47:27.639Z,8.10
2022-11-20T16:49:57.590Z,8.10
2022-11-20T16:52:25.417Z,8.47
2022-11-20T16:54:57.122Z,8.80
2022-11-20T16:57:37.229Z,8.63
2022-11-20T17:03:51.812Z,8.63
2022-11-20T17:06:22.112Z,9.77
2022-11-20T17:08:49.926Z,9.57
2022-11-20T17:11:22.684Z,9.17
2022-11-20T17:13:49.674Z,9.20
2022-11-20T17:16:20.959Z,9.13
2022-11-20T17:18:49.308Z,8.90
2022-11-20T17:21:16.801Z,8.57
2022-11-20T17:23:44.989Z,8.63
2022-11-20T17:26:13.641Z,8.73
2022-11-20T17:28:41.086Z,10.97
2022-11-20T17:31:09.503Z,14.63
2022-11-20T17:33:37.999Z,10.87
2022-11-20T17:36:07.087Z,9.43
2022-11-20T17:38:34.024Z,9.13
2022-11-20T17:41:05.386Z,9.10
2022-11-20T17:43:35.695Z,10.53
2022-11-20T17:46:04.900Z,10.37
2022-11-20T17:48:31.777Z,9.37
2022-11-20T17:50:59.939Z,9.17
2022-11-20T17:53:27.373Z,10.90
2022-11-20T17:56:18.291Z,9.97
2022-11-20T17:58:45.470Z,9.60
2022-11-20T18:01:12.498Z,11.73
2022-11-20T18:03:39.161Z,11.67
2022-11-20T18:06:10.507Z,11.97
2022-11-20T18:08:37.887Z,10.40
2022-11-20T18:11:12.326Z,9.67
2022-11-20T18:13:57.665Z,12.07
2022-11-20T18:16:24.646Z,10.33
2022-11-20T18:18:54.917Z,10.07
2022-11-20T18:21:22.004Z,9.53
2022-11-20T18:23:49.593Z,9.10
2022-11-20T18:26:16.641Z,9.70
2022-11-20T18:28:43.533Z,9.50
2022-11-20T18:31:10.581Z,9.10
2022-11-20T18:33:37.941Z,9.27
2022-11-20T18:36:13.464Z,8.90
2022-11-20T18:38:42.722Z,9.57
2022-11-20T18:41:31.174Z,9.37
2022-11-20T18:44:16.410Z,10.57
2022-11-20T18:46:44.043Z,9.07
2022-11-20T18:49:12.028Z,9.23
2022-11-20T18:51:40.601Z,9.20
2022-11-20T18:54:07.894Z,8.53
2022-11-20T18:56:35.343Z,8.40
2022-11-20T18:59:02.466Z,9.73
2022-11-20T19:01:29.267Z,11.77
2022-11-20T19:03:56.491Z,10.77
2022-11-20T19:06:23.877Z,9.00
2022-11-20T19:08:51.104Z,8.87
2022-11-20T19:11:22.686Z,8.50
2022-11-20T19:13:50.572Z,8.13
2022-11-20T19:16:21.660Z,8.23
2022-11-20T19:18:49.442Z,9.13
2022-11-20T19:21:18.128Z,9.53
2022-11-20T19:23:48.455Z,9.53
2022-11-20T19:26:16.042Z,9.43
2022-11-20T19:28:43.396Z,9.03
2022-11-20T19:31:12.637Z,9.73
2022-11-20T19:33:39.773Z,10.23
2022-11-20T19:36:10.456Z,10.30
2022-11-20T19:38:37.561Z,9.80
2022-11-20T19:41:04.759Z,9.97
2022-11-20T19:43:31.626Z,9.40
2022-11-20T19:45:58.829Z,9.43
2022-11-20T19:48:26.230Z,10.73
2022-11-20T19:50:53.298Z,10.13
2022-11-20T19:53:20.489Z,12.73
2022-11-20T19:55:55.651Z,10.57
2022-11-20T19:58:22.586Z,10.47
2022-11-20T20:00:49.217Z,9.60
2022-11-20T20:03:16.134Z,10.33
2022-11-20T20:05:43.339Z,9.97
2022-11-20T20:08:12.169Z,10.40
2022-11-20T20:10:41.883Z,9.97
2022-11-20T20:13:08.765Z,10.70
2022-11-20T20:15:39.901Z,10.20
2022-11-20T20:18:06.888Z,10.53
2022-11-20T20:20:35.171Z,10.23
2022-11-20T20:23:06.680Z,10.13
2022-11-20T20:25:36.771Z,9.67
2022-11-20T20:28:03.860Z,10.50
2022-11-20T20:30:30.845Z,10.40
2022-11-20T20:32:57.682Z,11.77
2022-11-20T20:35:24.723Z,12.63
2022-11-20T20:37:51.661Z,17.57
2022-11-20T20:40:19.279Z,17.20
2022-11-20T20:42:46.159Z,17.87
2022-11-20T20:45:16.050Z,13.03
2022-11-20T20:47:43.137Z,10.27
2022-11-20T20:50:11.377Z,11.03
2022-11-20T20:52:38.407Z,9.53
2022-11-20T20:55:05.700Z,9.20
2022-11-20T20:57:33.396Z,10.07
2022-11-20T21:00:00.315Z,9.93
2022-11-20T21:02:27.223Z,10.07
2022-11-20T21:04:54.501Z,10.77
2022-11-20T21:07:21.512Z,10.07
2022-11-20T21:09:48.469Z,9.80
2022-11-20T21:12:15.452Z,10.17
2022-11-20T21:14:43.028Z,10.10
2022-11-20T21:17:14.938Z,18.70
2022-11-20T21:19:42.763Z,12.53
2022-11-20T21:22:09.134Z,10.30
2022-11-20T21:24:36.514Z,17.57
2022-11-20T21:27:05.034Z,11.50
2022-11-20T21:29:32.056Z,11.20
2022-11-20T21:32:03.496Z,10.47
2022-11-20T21:34:30.171Z,11.13
2022-11-20T21:36:57.051Z,11.40
2022-11-20T21:39:23.925Z,11.70
2022-11-20T21:41:50.869Z,11.47
2022-11-20T21:44:33.051Z,10.83
2022-11-20T21:47:00.326Z,22.37
2022-11-20T21:49:27.539Z,33.27
2022-11-20T21:51:54.154Z,13.57
2022-11-20T21:54:21.339Z,11.23
2022-11-20T21:56:48.389Z,11.17
2022-11-20T21:59:15.306Z,11.03
2022-11-20T22:01:42.162Z,12.93
2022-11-20T22:04:14.009Z,11.63
2022-11-20T22:06:40.956Z,12.57
2022-11-20T22:09:07.878Z,13.33
2022-11-20T22:11:34.571Z,13.30
2022-11-20T22:14:20.009Z,13.07
2022-11-20T22:16:47.006Z,13.10
2022-11-20T22:19:17.271Z,12.77
2022-11-20T22:21:44.153Z,13.23
2022-11-20T22:24:13.076Z,13.57
2022-11-20T22:26:40.841Z,13.33
2022-11-20T22:29:11.851Z,14.20
2022-11-20T22:31:38.760Z,15.27
2022-11-20T22:34:05.678Z,14.57
2022-11-20T22:36:36.267Z,14.20
2022-11-20T22:39:04.413Z,12.07
2022-11-20T22:41:31.476Z,13.73
2022-11-20T22:43:59.392Z,13.87
2022-11-20T22:46:27.922Z,13.87
2022-11-20T22:48:55.990Z,12.60
2022-11-20T22:51:23.828Z,13.67
2022-11-20T22:53:51.687Z,14.93
2022-11-20T22:56:18.869Z,14.03
2022-11-20T22:58:47.592Z,13.33
2022-11-20T23:01:17.775Z,14.93
2022-11-20T23:03:46.498Z,14.93
2022-11-20T23:06:13.577Z,14.60
2022-11-20T23:08:41.240Z,15.10
2022-11-20T23:11:10.577Z,16.30
2022-11-20T23:13:37.380Z,17.03
2022-11-20T23:16:06.026Z,15.10
2022-11-20T23:18:34.216Z,15.87
2022-11-20T23:21:04.617Z,17.00
2022-11-20T23:23:31.579Z,16.07
2022-11-20T23:26:00.639Z,16.90
2022-11-20T23:28:27.895Z,16.77
2022-11-20T23:30:54.731Z,16.73
2022-11-20T23:33:21.579Z,16.00
2022-11-20T23:35:49.003Z,15.03
2022-11-20T23:38:15.910Z,17.03
2022-11-20T23:40:46.577Z,16.37
2022-11-20T23:43:16.606Z,17.27
2022-11-20T23:45:44.923Z,16.97
2022-11-20T23:48:11.888Z,15.93
2022-11-20T23:50:38.882Z,14.93
2022-11-20T23:53:05.820Z,13.53
2022-11-20T23:55:32.843Z,15.83
2022-11-20T23:57:59.849Z,15.70
